Time;durP1;ratioP1;P1;durP2;ratioP2;P2;SDS_P1;SDS_P2;PMS_P1;PMS_P2;Temp;Humidity;BMP_temperature;BMP_pressure;BME280_temperature;BME280_humidity;BME280_pressure;Samples;Min_cycle;Max_cycle;Signal;HPM_P1;HPM_P2
2023/10/11 00:01:38;;;;;;;9.48;4.40;;;18.90;99.90;;;;;;4159138;28;20033;-72
2023/10/11 00:03:52;;;;;;;7.72;4.53;;;18.90;99.90;;;;;;4158410;28;20049;-73
2023/10/11 00:05:53;;;;;;;10.80;4.78;;;18.90;99.90;;;;;;4159282;28;20041;-73
2023/10/11 00:07:58;;;;;;;7.68;3.97;;;18.90;99.90;;;;;;4159324;28;20045;-72
2023/10/11 00:09:58;;;;;;;7.78;4.10;;;18.90;99.90;;;;;;4158052;28;20037;-73
2023/10/11 00:11:59;;;;;;;7.93;4.47;;;18.90;99.90;;;;;;4158681;28;20064;-73
2023/10/11 00:14:00;;;;;;;8.45;4.50;;;18.90;99.90;;;;;;4159607;28;20426;-73
2023/10/11 00:16:09;;;;;;;8.07;4.35;;;18.90;99.90;;;;;;4160377;28;20038;-73
2023/10/11 00:18:10;;;;;;;9.05;4.65;;;18.90;99.90;;;;;;4159667;28;20037;-73
2023/10/11 00:20:28;;;;;;;8.15;3.97;;;19.00;99.90;;;;;;4156095;28;20038;-74
2023/10/11 00:22:28;;;;;;;8.63;4.28;;;18.90;99.90;;;;;;4159016;28;20041;-73
2023/10/11 00:24:29;;;;;;;12.23;4.60;;;18.90;99.90;;;;;;4158470;28;20104;-73
2023/10/11 00:26:30;;;;;;;8.63;4.55;;;18.90;99.90;;;;;;4174989;28;20052;-73
2023/10/11 00:28:32;;;;;;;7.53;4.13;;;18.90;99.90;;;;;;4176327;28;20568;-73
2023/10/11 00:30:36;;;;;;;8.50;4.63;;;18.90;99.90;;;;;;4178720;28;20118;-73
2023/10/11 00:32:37;;;;;;;8.05;3.85;;;18.90;99.90;;;;;;4178552;28;20048;-73
2023/10/11 00:34:39;;;;;;;9.63;4.82;;;18.90;99.90;;;;;;4178465;28;20545;-73
2023/10/11 00:36:42;;;;;;;10.38;4.10;;;18.80;99.90;;;;;;4178350;28;20043;-73
2023/10/11 00:38:46;;;;;;;8.35;4.43;;;18.90;99.90;;;;;;4177771;28;20052;-73
2023/10/11 00:43:16;;;;;;;9.13;4.40;;;18.90;99.90;;;;;;4178056;28;20373;-76
2023/10/11 00:45:17;;;;;;;9.88;4.50;;;18.80;99.90;;;;;;4181294;28;20061;-76
2023/10/11 00:47:18;;;;;;;9.95;4.63;;;18.80;99.90;;;;;;4151810;28;20440;-76
2023/10/11 00:49:20;;;;;;;12.80;5.20;;;18.80;99.90;;;;;;4182743;28;20037;-76
2023/10/11 00:51:31;;;;;;;9.82;4.65;;;18.80;99.90;;;;;;4176671;28;20037;-75
2023/10/11 00:53:34;;;;;;;10.93;4.57;;;18.80;99.90;;;;;;4179274;28;20469;-76
2023/10/11 00:55:35;;;;;;;10.75;4.93;;;18.80;99.90;;;;;;4176431;28;20071;-77
2023/10/11 00:57:36;;;;;;;8.10;4.72;;;18.80;99.90;;;;;;4180112;28;20095;-76
2023/10/11 00:59:38;;;;;;;11.45;4.28;;;18.80;99.90;;;;;;4177690;28;20033;-76
2023/10/11 01:01:39;;;;;;;8.60;4.73;;;18.80;99.90;;;;;;4176176;28;20043;-77
2023/10/11 01:03:41;;;;;;;8.68;4.38;;;18.80;99.90;;;;;;4179240;28;20748;-77
2023/10/11 01:05:44;;;;;;;9.63;4.88;;;18.80;99.90;;;;;;4178843;28;20040;-77
2023/10/11 01:07:46;;;;;;;9.70;4.00;;;18.80;99.90;;;;;;4181004;28;20029;-75
2023/10/11 01:09:47;;;;;;;11.70;4.47;;;18.80;99.90;;;;;;4179776;28;20056;-76
2023/10/11 01:11:47;;;;;;;10.98;4.35;;;18.80;99.90;;;;;;4178053;28;20044;-76
2023/10/11 01:13:51;;;;;;;7.40;4.10;;;18.80;99.90;;;;;;4181938;28;20470;-76
2023/10/11 01:15:52;;;;;;;9.45;4.75;;;18.80;99.90;;;;;;4174508;28;20040;-76
2023/10/11 01:17:54;;;;;;;10.15;4.70;;;18.80;99.90;;;;;;4178787;28;20108;-75
2023/10/11 01:19:54;;;;;;;8.20;4.20;;;18.70;99.90;;;;;;4177459;28;20040;-76
2023/10/11 01:21:59;;;;;;;9.75;4.88;;;18.70;99.90;;;;;;4175912;28;20029;-76
2023/10/11 01:23:59;;;;;;;9.82;4.70;;;18.80;99.90;;;;;;4179831;28;20454;-76
2023/10/11 01:26:07;;;;;;;8.98;4.32;;;18.70;99.90;;;;;;4177357;28;20037;-77
2023/10/11 01:28:07;;;;;;;9.77;4.80;;;18.70;99.90;;;;;;4176232;28;20033;-76
2023/10/11 01:30:09;;;;;;;10.98;5.13;;;18.70;99.90;;;;;;4175096;28;20500;-77
2023/10/11 01:32:10;;;;;;;10.00;4.77;;;18.70;99.90;;;;;;4180563;28;20539;-76
2023/10/11 01:34:14;;;;;;;7.20;4.28;;;18.70;99.90;;;;;;4182147;28;20041;-76
2023/10/11 01:36:15;;;;;;;9.15;5.03;;;18.70;99.90;;;;;;4178882;28;20033;-76
2023/10/11 01:38:17;;;;;;;11.55;5.13;;;18.70;99.90;;;;;;4180507;28;20028;-75
2023/10/11 01:40:21;;;;;;;9.02;4.72;;;18.70;99.90;;;;;;4180610;28;20152;-76
2023/10/11 01:42:22;;;;;;;12.52;5.32;;;18.70;99.90;;;;;;4181996;28;20031;-75
2023/10/11 01:44:22;;;;;;;10.82;4.35;;;18.70;99.90;;;;;;4182869;28;20458;-76
2023/10/11 01:46:26;;;;;;;10.02;4.50;;;18.60;99.90;;;;;;4183129;28;20037;-75
2023/10/11 01:48:27;;;;;;;12.98;4.72;;;18.70;99.90;;;;;;4188660;28;20405;-76
2023/10/11 01:50:28;;;;;;;9.25;4.60;;;18.60;99.90;;;;;;4184077;28;20033;-77
2023/10/11 01:52:34;;;;;;;8.75;4.57;;;18.70;99.90;;;;;;4180090;28;20063;-76
2023/10/11 01:54:35;;;;;;;10.25;4.25;;;18.60;99.90;;;;;;4180047;28;20105;-76
2023/10/11 01:56:37;;;;;;;10.65;5.38;;;18.70;99.90;;;;;;4184206;28;20036;-76
2023/10/11 01:58:38;;;;;;;;;;;18.60;99.90;;;;;;4190396;28;20511;-77
2023/10/11 02:00:39;;;;;;;7.53;3.80;;;18.60;99.90;;;;;;4181131;28;20007;-76
2023/10/11 02:02:47;;;;;;;8.85;4.55;;;18.60;99.90;;;;;;4188655;28;20041;-77
2023/10/11 02:04:47;;;;;;;9.63;4.38;;;18.60;99.90;;;;;;4185141;28;20139;-77
2023/10/11 02:06:48;;;;;;;8.30;4.22;;;18.60;99.90;;;;;;4188900;28;20025;-76
2023/10/11 02:08:50;;;;;;;14.60;5.15;;;18.60;99.90;;;;;;4186210;28;20065;-77
2023/10/11 02:10:51;;;;;;;9.50;4.35;;;18.60;99.90;;;;;;4186690;28;20036;-76
2023/10/11 02:12:55;;;;;;;8.73;4.63;;;18.60;99.90;;;;;;4183168;28;20425;-76
2023/10/11 02:14:56;;;;;;;8.18;4.25;;;18.60;99.90;;;;;;4184252;28;20145;-76
2023/10/11 02:16:57;;;;;;;7.85;4.50;;;18.60;99.90;;;;;;4187239;28;20488;-79
2023/10/11 02:19:00;;;;;;;8.38;4.15;;;18.50;99.90;;;;;;4181311;28;20033;-76
2023/10/11 02:21:06;;;;;;;7.65;4.03;;;18.60;99.90;;;;;;4187079;28;20037;-76
2023/10/11 02:23:07;;;;;;;8.38;4.53;;;18.50;99.90;;;;;;4187149;28;20036;-77
2023/10/11 02:25:13;;;;;;;8.43;4.50;;;18.50;99.90;;;;;;4186014;28;20037;-77
2023/10/11 02:27:17;;;;;;;8.10;4.20;;;18.50;99.90;;;;;;4189733;28;20103;-77
2023/10/11 02:29:21;;;;;;;10.20;4.68;;;18.50;99.90;;;;;;4185120;28;20496;-76
2023/10/11 02:31:26;;;;;;;6.97;4.03;;;18.40;99.90;;;;;;4186982;28;20614;-76
2023/10/11 02:33:31;;;;;;;9.75;4.70;;;18.40;99.90;;;;;;4184502;28;20041;-76
2023/10/11 02:35:34;;;;;;;12.25;4.45;;;18.40;99.90;;;;;;4182662;28;20040;-76
2023/10/11 02:37:37;;;;;;;10.13;4.68;;;18.40;99.90;;;;;;4187393;28;20041;-76
2023/10/11 02:39:43;;;;;;;7.88;4.45;;;18.40;99.90;;;;;;4185679;28;20033;-76
2023/10/11 02:41:49;;;;;;;9.90;4.57;;;18.40;99.90;;;;;;4183470;28;20393;-77
2023/10/11 02:43:54;;;;;;;9.77;4.65;;;18.30;99.90;;;;;;4181832;28;20471;-77
2023/10/11 02:45:58;;;;;;;12.10;4.45;;;18.30;99.90;;;;;;4185500;28;20115;-76
2023/10/11 02:47:59;;;;;;;10.93;4.47;;;18.40;99.90;;;;;;4198357;28;20453;-76
2023/10/11 02:50:05;;;;;;;9.68;4.85;;;18.30;99.90;;;;;;4184939;28;20037;-76
2023/10/11 02:52:08;;;;;;;10.10;4.10;;;18.30;99.90;;;;;;4181374;28;20119;-76
2023/10/11 02:54:14;;;;;;;10.45;4.50;;;18.30;99.90;;;;;;4179672;28;20044;-77
2023/10/11 02:56:15;;;;;;;9.30;4.50;;;18.20;99.90;;;;;;4177042;28;20417;-77
2023/10/11 02:58:21;;;;;;;10.50;4.03;;;18.20;99.90;;;;;;4187758;28;20531;-77
2023/10/11 03:00:22;;;;;;;9.25;4.22;;;18.30;99.90;;;;;;4182474;28;20067;-74
2023/10/11 03:02:29;;;;;;;9.98;4.63;;;18.20;99.90;;;;;;4183873;28;20044;-72
2023/10/11 03:04:38;;;;;;;9.80;4.70;;;18.20;99.90;;;;;;4174861;28;20557;-72
2023/10/11 03:06:38;;;;;;;10.48;4.28;;;18.20;99.90;;;;;;4185208;28;20037;-72
2023/10/11 03:08:44;;;;;;;9.45;4.47;;;18.20;99.90;;;;;;4182500;28;20040;-73
2023/10/11 03:10:53;;;;;;;9.57;4.85;;;18.20;99.90;;;;;;4197061;28;20036;-73
2023/10/11 03:12:53;;;;;;;9.85;4.65;;;18.20;99.90;;;;;;4181294;28;20115;-72
2023/10/11 03:14:57;;;;;;;7.60;4.30;;;18.10;99.90;;;;;;4188694;28;20529;-73
2023/10/11 03:17:05;;;;;;;8.35;4.38;;;18.10;99.90;;;;;;4181667;28;20099;-73
2023/10/11 03:19:07;;;;;;;8.52;4.68;;;18.10;99.90;;;;;;4178399;28;20448;-72
2023/10/11 03:21:33;;;;;;;13.02;5.25;;;18.00;99.90;;;;;;4182717;28;20083;-72
2023/10/11 03:23:43;;;;;;;8.52;4.43;;;18.00;99.90;;;;;;4186868;28;20095;-73
2023/10/11 03:25:49;;;;;;;9.52;4.10;;;18.00;99.90;;;;;;4179145;28;20081;-73
2023/10/11 03:27:51;;;;;;;7.07;4.13;;;18.00;99.90;;;;;;4183574;28;20033;-73
2023/10/11 03:29:53;;;;;;;10.35;4.72;;;18.00;99.90;;;;;;4186871;28;20385;-72
2023/10/11 03:31:53;;;;;;;7.78;3.95;;;18.00;99.90;;;;;;4189460;28;20032;-73
2023/10/11 03:33:58;;;;;;;11.70;4.47;;;17.90;99.90;;;;;;4180475;28;20623;-72
2023/10/11 03:36:04;;;;;;;9.65;4.63;;;17.90;99.90;;;;;;4183840;28;20036;-73
2023/10/11 03:38:17;;;;;;;10.07;4.55;;;17.90;99.90;;;;;;4187457;28;20033;-73
2023/10/11 03:40:27;;;;;;;8.02;4.35;;;17.80;99.90;;;;;;4184197;28;20028;-72
2023/10/11 03:45:01;;;;;;;9.55;4.45;;;17.80;99.90;;;;;;4146006;28;20094;-73
2023/10/11 03:47:07;;;;;;;10.10;5.20;;;17.80;99.90;;;;;;4183177;28;20043;-72
2023/10/11 03:51:20;;;;;;;8.70;4.43;;;17.80;99.90;;;;;;4188507;28;20036;-72
2023/10/11 03:53:21;;;;;;;8.95;4.35;;;17.80;99.90;;;;;;4183752;28;20063;-72
2023/10/11 03:55:22;;;;;;;11.88;5.00;;;17.80;99.90;;;;;;4181167;28;20024;-72
2023/10/11 03:57:22;;;;;;;10.13;4.53;;;17.80;99.90;;;;;;4184077;28;20056;-71
2023/10/11 03:59:27;;;;;;;6.82;4.18;;;17.70;99.90;;;;;;4182989;28;20032;-72
2023/10/11 04:01:36;;;;;;;8.13;4.70;;;17.70;99.90;;;;;;4186099;28;20198;-72
2023/10/11 04:03:39;;;;;;;11.13;4.50;;;17.60;99.90;;;;;;4178224;28;20447;-73
2023/10/11 04:05:40;;;;;;;10.23;4.70;;;17.70;99.90;;;;;;4180514;28;20061;-72
2023/10/11 04:07:41;;;;;;;11.07;5.22;;;17.60;99.90;;;;;;4186874;28;20060;-73
2023/10/11 04:09:44;;;;;;;10.15;4.63;;;17.70;99.90;;;;;;4184014;28;20420;-72
2023/10/11 04:11:55;;;;;;;9.30;4.53;;;17.70;99.90;;;;;;4171653;28;20124;-84
2023/10/11 04:13:59;;;;;;;8.27;4.75;;;17.70;99.90;;;;;;4185019;28;20444;-85
2023/10/11 04:16:00;;;;;;;10.75;4.43;;;17.70;99.90;;;;;;4165188;28;20041;-85
2023/10/11 04:18:13;;;;;;;7.97;4.47;;;17.70;99.90;;;;;;4183252;28;20033;-83
2023/10/11 04:20:29;;;;;;;;;;;17.70;99.90;;;;;;4175207;28;20397;-85
2023/10/11 04:22:31;;;;;;;10.07;4.28;;;17.60;99.90;;;;;;4184775;28;20392;-84
2023/10/11 04:24:36;;;;;;;10.55;4.72;;;17.60;99.90;;;;;;4184388;28;20469;-84
2023/10/11 04:26:37;;;;;;;8.25;4.35;;;17.60;99.90;;;;;;4182540;28;20385;-84
2023/10/11 04:28:41;;;;;;;10.35;4.75;;;17.60;99.90;;;;;;4184547;28;20044;-84
2023/10/11 04:30:44;;;;;;;9.38;4.53;;;17.60;99.90;;;;;;4180059;28;20029;-83
2023/10/11 04:32:47;;;;;;;9.32;4.63;;;17.60;99.90;;;;;;4184498;28;20548;-84
2023/10/11 04:34:48;;;;;;;8.93;4.82;;;17.60;99.90;;;;;;4186325;28;20044;-78
2023/10/11 04:36:55;;;;;;;9.40;4.38;;;17.50;99.90;;;;;;4185169;28;20469;-83
2023/10/11 04:39:14;;;;;;;9.40;4.47;;;17.50;99.90;;;;;;4176220;28;20111;-85
2023/10/11 04:41:20;;;;;;;9.15;5.00;;;17.50;99.90;;;;;;4172282;28;20043;-85
2023/10/11 04:43:20;;;;;;;10.00;4.43;;;17.50;99.90;;;;;;4174624;28;20052;-84
2023/10/11 04:45:29;;;;;;;10.30;4.43;;;17.40;99.90;;;;;;4175793;28;20036;-84
2023/10/11 04:47:50;;;;;;;11.25;4.97;;;17.40;99.90;;;;;;4174449;28;20405;-85
2023/10/11 04:49:54;;;;;;;13.98;5.22;;;17.40;99.90;;;;;;4172042;28;20053;-84
2023/10/11 04:51:56;;;;;;;9.43;5.32;;;17.40;99.90;;;;;;4174837;28;20041;-83
2023/10/11 04:53:58;;;;;;;9.57;5.15;;;17.30;99.90;;;;;;4176213;28;20083;-84
2023/10/11 04:55:59;;;;;;;10.73;5.18;;;17.30;99.90;;;;;;4175674;28;20124;-85
2023/10/11 04:58:07;;;;;;;14.80;5.47;;;17.30;99.90;;;;;;4176691;28;20032;-84
2023/10/11 05:00:17;;;;;;;10.18;5.25;;;17.30;99.90;;;;;;4173935;28;20025;-83
2023/10/11 05:02:28;;;;;;;10.20;5.00;;;17.30;99.90;;;;;;4176880;28;20083;-86
2023/10/11 05:04:33;;;;;;;9.98;5.30;;;17.20;99.90;;;;;;4167391;28;20051;-85
2023/10/11 05:06:40;;;;;;;11.73;5.47;;;17.20;99.90;;;;;;4155138;28;20041;-87
2023/10/11 05:08:51;;;;;;;9.07;5.38;;;17.10;99.90;;;;;;4145543;28;20033;-86
2023/10/11 05:10:52;;;;;;;13.23;6.22;;;17.20;99.90;;;;;;4159303;28;20033;-86
2023/10/11 05:13:09;;;;;;;11.95;5.88;;;17.20;99.90;;;;;;4163030;28;20029;-86
2023/10/11 05:15:10;;;;;;;11.73;5.55;;;17.10;99.90;;;;;;4153583;28;20033;-85
2023/10/11 05:19:20;;;;;;;10.10;5.22;;;17.10;99.90;;;;;;4181856;28;20037;-87
2023/10/11 05:21:26;;;;;;;9.45;5.18;;;17.10;99.90;;;;;;4186755;28;20391;-66
2023/10/11 05:23:42;;;;;;;13.57;5.53;;;17.10;99.90;;;;;;4174114;28;20110;-72
2023/10/11 05:25:57;;;;;;;11.02;5.50;;;17.10;99.90;;;;;;4175994;28;20040;-72
2023/10/11 05:28:07;;;;;;;7.90;4.63;;;17.10;99.90;;;;;;4175609;28;20041;-71
2023/10/11 05:30:28;;;;;;;11.25;5.18;;;17.10;99.90;;;;;;4185762;28;20058;-73
2023/10/11 05:32:32;;;;;;;11.23;5.63;;;17.00;99.90;;;;;;4152787;28;20120;-72
2023/10/11 05:35:11;;;;;;;11.18;5.63;;;17.00;99.90;;;;;;4149176;28;20045;-71
2023/10/11 05:51:09;;;;;;;8.43;4.22;;;16.90;99.90;;;;;;4172215;28;20098;-72
2023/10/11 05:53:14;;;;;;;9.95;5.03;;;16.90;99.90;;;;;;4177485;28;20032;-72
2023/10/11 05:55:16;;;;;;;11.15;5.57;;;17.00;99.90;;;;;;4168129;28;20044;-72
2023/10/11 05:57:19;;;;;;;12.52;5.32;;;17.00;99.90;;;;;;4171853;28;20556;-72
2023/10/11 05:59:19;;;;;;;13.10;5.43;;;16.90;99.90;;;;;;4188078;28;20469;-70
2023/10/11 06:01:22;;;;;;;12.98;4.97;;;16.90;99.90;;;;;;4175092;28;20047;-72
2023/10/11 06:03:24;;;;;;;8.90;4.75;;;17.00;99.90;;;;;;4174452;28;20064;-72
2023/10/11 06:05:25;;;;;;;15.35;5.57;;;17.00;99.90;;;;;;4172965;28;20465;-72
2023/10/11 06:07:32;;;;;;;8.55;4.70;;;17.00;99.90;;;;;;4174231;28;20067;-73
2023/10/11 06:09:39;;;;;;;7.15;4.35;;;17.00;99.90;;;;;;4189275;28;20032;-72
2023/10/11 06:11:40;;;;;;;8.52;4.43;;;17.10;99.90;;;;;;4172623;28;20090;-72
2023/10/11 06:13:43;;;;;;;10.05;5.20;;;17.00;99.90;;;;;;4173714;28;20466;-72
2023/10/11 06:16:00;;;;;;;9.60;4.68;;;17.00;99.90;;;;;;4171756;28;20029;-72
2023/10/11 06:18:01;;;;;;;9.68;5.03;;;17.00;99.90;;;;;;4173659;28;20033;-72
2023/10/11 06:20:23;;;;;;;9.10;4.90;;;17.10;99.90;;;;;;4169218;28;20036;-73
2023/10/11 06:22:28;;;;;;;14.52;5.15;;;17.10;99.90;;;;;;4175632;28;20075;-72
2023/10/11 06:24:30;;;;;;;8.90;4.60;;;17.10;99.90;;;;;;4177565;28;20053;-73
2023/10/11 06:28:37;;;;;;;9.68;4.72;;;17.20;99.90;;;;;;4178113;28;20072;-73
2023/10/11 06:30:39;;;;;;;10.43;4.25;;;17.20;99.90;;;;;;4173157;28;20037;-72
2023/10/11 06:32:42;;;;;;;9.48;4.28;;;17.20;99.90;;;;;;4174668;28;20067;-72
2023/10/11 06:34:47;;;;;;;11.48;4.28;;;17.20;99.90;;;;;;4176500;28;20033;-73
2023/10/11 06:36:49;;;;;;;9.13;4.40;;;17.20;99.90;;;;;;4173276;28;20037;-72
2023/10/11 06:38:52;;;;;;;5.80;3.88;;;17.30;99.90;;;;;;4172990;28;20029;-72
2023/10/11 06:41:36;;;;;;;5.68;3.67;;;17.40;99.90;;;;;;4172642;28;20072;-72
2023/10/11 06:43:16;;;;;;;;;;;17.50;99.90;;;;;;4176946;28;20032;-72
2023/10/11 06:45:16;;;;;;;8.18;4.22;;;17.60;99.90;;;;;;4177383;28;19909;-72
2023/10/11 06:47:19;;;;;;;8.00;4.30;;;17.70;99.90;;;;;;4176977;28;20043;-72
2023/10/11 06:49:20;;;;;;;;;;;17.80;99.90;;;;;;4175392;28;20045;-72
2023/10/11 06:51:20;;;;;;;10.93;4.43;;;18.00;99.90;;;;;;4176218;28;20323;-72
2023/10/11 06:53:21;;;;;;;8.05;4.10;;;18.10;99.90;;;;;;4177647;28;20143;-72
2023/10/11 06:55:25;;;;;;;8.68;3.95;;;18.20;99.90;;;;;;4175358;28;20071;-73
2023/10/11 06:57:26;;;;;;;7.30;3.80;;;18.30;99.90;;;;;;4176969;28;20106;-72
2023/10/11 06:59:28;;;;;;;7.95;4.35;;;18.30;99.90;;;;;;4178432;28;20032;-72
2023/10/11 07:01:35;;;;;;;9.27;4.47;;;18.40;99.90;;;;;;4175657;28;20068;-73
2023/10/11 07:03:39;;;;;;;7.22;3.92;;;18.40;99.90;;;;;;4177724;28;20132;-72
2023/10/11 07:05:42;;;;;;;9.88;4.43;;;18.60;99.90;;;;;;4175809;28;20047;-73
2023/10/11 07:07:47;;;;;;;7.05;4.25;;;18.60;99.90;;;;;;4173084;28;20033;-72
2023/10/11 07:09:56;;;;;;;9.15;3.92;;;18.80;99.90;;;;;;4177186;28;20499;-72
2023/10/11 07:12:28;;;;;;;11.77;4.35;;;19.00;99.90;;;;;;4179629;28;20473;-72
2023/10/11 07:14:28;;;;;;;9.43;4.60;;;19.00;99.90;;;;;;4180003;28;20043;-72
2023/10/11 07:16:31;;;;;;;8.75;4.05;;;19.00;99.90;;;;;;4179188;28;20127;-73
2023/10/11 07:18:39;;;;;;;7.25;4.13;;;19.10;99.90;;;;;;4177053;28;20037;-73
2023/10/11 07:20:47;;;;;;;9.63;4.55;;;19.20;99.90;;;;;;4175065;28;20037;-74
2023/10/11 07:22:48;;;;;;;6.88;3.42;;;19.40;99.90;;;;;;4176968;28;20082;-73
2023/10/11 07:24:55;;;;;;;7.15;3.60;;;19.50;99.90;;;;;;4174794;28;20071;-71
2023/10/11 07:26:57;;;;;;;9.35;4.10;;;19.70;99.90;;;;;;4172000;28;20039;-72
2023/10/11 07:29:02;;;;;;;7.15;4.20;;;19.80;99.90;;;;;;4180447;28;20026;-73
2023/10/11 07:31:04;;;;;;;9.15;4.05;;;20.00;99.90;;;;;;4180211;28;20061;-73
2023/10/11 07:33:05;;;;;;;12.68;4.47;;;20.10;99.90;;;;;;4176912;28;20039;-75
2023/10/11 07:35:08;;;;;;;9.05;4.40;;;20.10;99.90;;;;;;4176592;28;20527;-73
2023/10/11 07:37:11;;;;;;;10.70;4.15;;;20.10;99.90;;;;;;4190582;28;20044;-73
2023/10/11 07:41:28;;;;;;;10.13;4.15;;;20.40;99.90;;;;;;4179009;28;20040;-73
2023/10/11 07:43:32;;;;;;;8.65;3.75;;;20.50;99.90;;;;;;4183929;28;20037;-72
2023/10/11 07:45:34;;;;;;;5.53;3.42;;;20.60;99.90;;;;;;4182147;28;20430;-73
2023/10/11 07:47:35;;;;;;;10.70;3.90;;;20.80;99.90;;;;;;4179917;28;20073;-73
2023/10/11 07:49:38;;;;;;;8.02;3.63;;;20.90;99.90;;;;;;4182043;28;20041;-73
2023/10/11 07:51:39;;;;;;;6.13;3.28;;;20.90;99.90;;;;;;4183381;28;20044;-74
2023/10/11 07:53:41;;;;;;;8.23;3.53;;;21.00;99.90;;;;;;4186703;28;20449;-73
2023/10/11 07:55:45;;;;;;;9.35;4.45;;;21.10;99.90;;;;;;4179130;28;21704;-73
2023/10/11 07:57:46;;;;;;;8.65;3.78;;;21.10;99.90;;;;;;4183139;28;20065;-73
2023/10/11 07:59:51;;;;;;;6.00;3.40;;;21.20;99.90;;;;;;4183161;28;20044;-73
2023/10/11 08:01:59;;;;;;;6.45;3.15;;;21.40;99.90;;;;;;4180861;28;20037;-71
2023/10/11 08:04:00;;;;;;;8.63;3.60;;;21.50;99.90;;;;;;4181659;28;20045;-71
2023/10/11 08:06:09;;;;;;;8.02;3.60;;;21.60;99.90;;;;;;4184205;28;20154;-71
2023/10/11 08:08:13;;;;;;;11.90;4.45;;;21.70;99.90;;;;;;4184269;28;20048;-71
2023/10/11 08:10:29;;;;;;;17.15;4.10;;;21.70;99.90;;;;;;4180053;28;20047;-72
2023/10/11 08:12:30;;;;;;;6.70;3.75;;;21.70;99.90;;;;;;4181942;28;20401;-71
2023/10/11 08:14:32;;;;;;;12.25;3.67;;;21.70;99.90;;;;;;4184273;28;20037;-72
2023/10/11 08:16:33;;;;;;;5.63;3.70;;;21.70;99.90;;;;;;4176084;28;20048;-71
2023/10/11 08:18:34;;;;;;;8.82;3.60;;;21.80;99.90;;;;;;4182037;28;20408;-72
2023/10/11 08:20:34;;;;;;;7.28;3.65;;;21.80;99.90;;;;;;4180532;28;20041;-72
2023/10/11 08:22:35;;;;;;;5.15;3.10;;;21.80;99.90;;;;;;4182097;28;20079;-72
2023/10/11 08:24:46;;;;;;;5.80;3.25;;;21.80;99.90;;;;;;4182632;28;20048;-72
2023/10/11 08:26:46;;;;;;;7.80;3.97;;;21.90;99.90;;;;;;4176920;28;20512;-71
2023/10/11 08:28:51;;;;;;;7.35;3.75;;;21.90;99.90;;;;;;4175690;28;20045;-72
2023/10/11 08:30:56;;;;;;;7.60;3.70;;;21.90;99.90;;;;;;4172942;28;20029;-71
2023/10/11 08:32:57;;;;;;;31.40;5.03;;;22.00;99.90;;;;;;4175870;28;20087;-72
2023/10/11 08:34:57;;;;;;;9.10;4.25;;;21.90;99.90;;;;;;4176455;28;20477;-72
2023/10/11 08:36:58;;;;;;;14.00;4.47;;;21.90;99.90;;;;;;4174383;28;20056;-72
2023/10/11 08:39:03;;;;;;;5.97;3.85;;;21.80;99.90;;;;;;4174771;28;20112;-71
2023/10/11 08:41:06;;;;;;;8.30;3.67;;;21.80;99.90;;;;;;4175015;28;20036;-72
2023/10/11 08:43:08;;;;;;;7.20;3.88;;;21.80;99.90;;;;;;4175927;28;20036;-72
2023/10/11 08:45:14;;;;;;;9.73;4.13;;;21.90;99.90;;;;;;4175771;28;20405;-72
2023/10/11 08:47:16;;;;;;;7.30;4.35;;;21.90;99.90;;;;;;4176657;28;20036;-72
2023/10/11 08:49:17;;;;;;;7.50;3.42;;;21.80;99.90;;;;;;4175212;28;20044;-72
2023/10/11 08:51:21;;;;;;;7.88;3.58;;;21.90;99.90;;;;;;4173865;28;20036;-72
2023/10/11 08:53:24;;;;;;;6.68;3.60;;;21.90;99.90;;;;;;4153753;28;20033;-72
2023/10/11 08:55:25;;;;;;;7.78;3.13;;;22.00;99.90;;;;;;4181417;28;20059;-72
2023/10/11 08:57:26;;;;;;;12.10;3.65;;;22.00;99.90;;;;;;4179761;28;20044;-71
2023/10/11 08:59:30;;;;;;;9.85;3.78;;;22.10;99.90;;;;;;4176414;28;20434;-72
2023/10/11 09:01:36;;;;;;;8.27;3.85;;;21.90;99.90;;;;;;4176761;28;20120;-72
2023/10/11 09:03:42;;;;;;;25.27;3.95;;;21.80;99.90;;;;;;4177417;28;20045;-72
2023/10/11 09:05:47;;;;;;;10.45;4.40;;;21.80;99.90;;;;;;4168766;28;20128;-72
2023/10/11 09:07:48;;;;;;;11.23;4.03;;;21.80;99.90;;;;;;4181383;28;20036;-72
2023/10/11 09:09:51;;;;;;;9.25;4.15;;;21.80;99.90;;;;;;4180383;28;20040;-72
2023/10/11 09:11:53;;;;;;;9.52;4.20;;;21.90;99.90;;;;;;4180751;28;20471;-71
2023/10/11 09:14:23;;;;;;;5.88;3.33;;;21.90;99.90;;;;;;4183963;28;20033;-72
2023/10/11 09:16:37;;;;;;;7.63;3.33;;;22.00;99.90;;;;;;4178770;28;20047;-72
2023/10/11 09:18:37;;;;;;;7.15;3.95;;;22.00;99.90;;;;;;4183585;28;20423;-72
2023/10/11 09:20:41;;;;;;;13.30;4.47;;;22.10;99.90;;;;;;4181682;28;20041;-71
2023/10/11 09:22:46;;;;;;;8.68;4.15;;;22.10;99.90;;;;;;4182113;28;20072;-71
2023/10/11 09:25:06;;;;;;;8.88;3.35;;;22.20;99.90;;;;;;4180122;28;20041;-72
2023/10/11 09:29:25;;;;;;;5.60;3.58;;;22.20;99.90;;;;;;4182007;28;20052;-72
2023/10/11 09:31:27;;;;;;;10.93;4.47;;;22.30;99.90;;;;;;4177862;28;20115;-72
2023/10/11 09:33:34;;;;;;;10.15;4.40;;;22.40;99.90;;;;;;4180256;28;20041;-71
2023/10/11 09:35:35;;;;;;;6.38;3.30;;;22.40;99.90;;;;;;4183982;28;20033;-72
2023/10/11 09:37:35;;;;;;;8.73;4.25;;;22.40;99.90;;;;;;4177097;28;20092;-72
2023/10/11 09:39:37;;;;;;;8.50;3.90;;;22.40;99.90;;;;;;4182132;28;20393;-72
2023/10/11 09:41:39;;;;;;;11.93;4.28;;;22.40;99.90;;;;;;4183902;28;20338;-72
2023/10/11 09:43:44;;;;;;;12.32;3.88;;;22.50;99.90;;;;;;4173702;28;20154;-72
2023/10/11 09:45:53;;;;;;;6.78;4.00;;;22.40;99.90;;;;;;4174180;28;20037;-72
2023/10/11 09:47:55;;;;;;;7.57;3.40;;;22.40;99.90;;;;;;4170611;28;20025;-72
2023/10/11 09:49:57;;;;;;;10.48;3.55;;;22.50;99.90;;;;;;4173755;28;20044;-72
2023/10/11 09:52:07;;;;;;;7.38;3.67;;;22.50;99.90;;;;;;4174949;28;20128;-72
2023/10/11 09:54:12;;;;;;;8.30;3.70;;;22.60;99.90;;;;;;4175352;28;20143;-72
2023/10/11 09:56:31;;;;;;;10.27;4.32;;;22.60;99.90;;;;;;4155447;28;20044;-72
2023/10/11 09:58:44;;;;;;;8.43;3.55;;;22.60;99.90;;;;;;4193885;28;20092;-71
2023/10/11 10:01:08;;;;;;;9.30;4.00;;;22.60;99.90;;;;;;4175849;28;20052;-72
2023/10/11 10:03:13;;;;;;;7.53;3.72;;;22.50;99.90;;;;;;4176433;28;20059;-72
2023/10/11 10:05:13;;;;;;;9.75;3.83;;;22.50;99.90;;;;;;4191676;28;20055;-72
2023/10/11 10:07:14;;;;;;;9.93;4.20;;;22.40;99.90;;;;;;4175829;28;20037;-72
2023/10/11 10:11:19;;;;;;;8.60;3.83;;;22.40;99.90;;;;;;4175839;28;20037;-72
2023/10/11 10:13:24;;;;;;;8.30;3.83;;;22.40;99.90;;;;;;4178284;28;20033;-72
2023/10/11 10:15:36;;;;;;;10.93;4.15;;;22.40;99.90;;;;;;4174933;28;20094;-70
2023/10/11 10:17:42;;;;;;;8.68;4.10;;;22.30;99.90;;;;;;4177142;28;20393;-72
2023/10/11 10:19:45;;;;;;;7.85;4.00;;;22.30;99.90;;;;;;4176048;28;20041;-72
2023/10/11 10:22:15;;;;;;;9.93;4.05;;;22.30;99.90;;;;;;4174067;28;20041;-80
2023/10/11 10:24:31;;;;;;;10.07;3.83;;;22.30;99.90;;;;;;4175565;28;20072;-72
2023/10/11 10:26:32;;;;;;;7.78;3.85;;;22.40;99.90;;;;;;4172112;28;20043;-72
2023/10/11 10:28:34;;;;;;;9.43;4.40;;;22.40;99.90;;;;;;4177348;28;20069;-72
2023/10/11 10:31:09;;;;;;;8.85;4.43;;;22.40;99.90;;;;;;4175074;28;20132;-72
2023/10/11 10:33:21;;;;;;;14.50;4.30;;;22.50;99.90;;;;;;4174845;28;20588;-72
2023/10/11 10:35:21;;;;;;;9.98;4.03;;;22.40;99.90;;;;;;4176745;28;20385;-72
2023/10/11 10:37:49;;;;;;;10.85;4.32;;;22.50;99.90;;;;;;4175884;28;20068;-72
2023/10/11 10:40:25;;;;;;;7.60;3.75;;;22.50;99.90;;;;;;4171110;28;20074;-72
2023/10/11 10:42:25;;;;;;;10.35;4.63;;;22.50;99.90;;;;;;4179419;28;20091;-71
2023/10/11 10:44:29;;;;;;;12.85;4.82;;;22.60;99.90;;;;;;4177008;28;20484;-71
2023/10/11 10:46:34;;;;;;;7.50;4.00;;;22.60;99.90;;;;;;4191656;28;20131;-71
2023/10/11 10:48:40;;;;;;;15.02;4.10;;;22.60;99.90;;;;;;4181010;28;20036;-71
2023/10/11 10:51:00;;;;;;;12.93;4.20;;;22.60;99.90;;;;;;4180862;28;20036;-71
2023/10/11 10:53:02;;;;;;;9.27;4.05;;;22.70;99.90;;;;;;4202615;28;20126;-72
2023/10/11 10:55:05;;;;;;;13.98;4.85;;;22.70;99.90;;;;;;4185370;28;20041;-74
2023/10/11 10:57:06;;;;;;;12.07;4.63;;;22.70;99.90;;;;;;4180642;28;20039;-72
2023/10/11 10:59:14;;;;;;;8.95;4.25;;;22.70;99.90;;;;;;4179870;28;20774;-72
2023/10/11 11:01:26;;;;;;;11.18;4.80;;;22.70;99.90;;;;;;4179527;28;20108;-72
2023/10/11 11:03:32;;;;;;;9.63;4.20;;;22.70;99.90;;;;;;4182616;28;20045;-71
2023/10/11 11:05:39;;;;;;;11.05;4.60;;;22.70;99.90;;;;;;4179104;28;20043;-72
2023/10/11 11:07:49;;;;;;;12.75;4.35;;;22.70;99.90;;;;;;4181411;28;20045;-72
2023/10/11 11:09:55;;;;;;;11.43;4.40;;;22.80;99.90;;;;;;4181204;28;20123;-72
2023/10/11 11:12:14;;;;;;;14.07;5.03;;;22.90;99.90;;;;;;4182351;28;20056;-72
2023/10/11 11:14:19;;;;;;;8.52;4.18;;;22.80;99.90;;;;;;4176399;28;20048;-72
2023/10/11 11:16:26;;;;;;;9.02;4.45;;;22.90;99.90;;;;;;4176611;28;20087;-72
2023/10/11 11:18:31;;;;;;;16.13;4.45;;;22.90;99.90;;;;;;4176169;28;20474;-72
2023/10/11 11:20:33;;;;;;;10.85;4.22;;;22.90;99.90;;;;;;4174977;28;20082;-72
2023/10/11 11:22:38;;;;;;;;;;;23.00;99.90;;;;;;4177376;28;20033;-72